createdAt,value
2019-05-16T00:01:15.603Z,50.67
2019-05-16T00:03:48.945Z,50.75
2019-05-16T00:06:21.145Z,50.88
2019-05-16T00:08:53.193Z,51.35
2019-05-16T00:11:24.799Z,51.37
2019-05-16T00:13:57.830Z,51.44
2019-05-16T00:16:29.841Z,51.54
2019-05-16T00:19:01.910Z,51.69
2019-05-16T00:21:33.747Z,51.60
2019-05-16T00:24:05.458Z,51.76
2019-05-16T00:26:38.804Z,51.72
2019-05-16T00:29:10.674Z,52.14
2019-05-16T00:31:42.572Z,52.37
2019-05-16T00:34:14.157Z,52.40
2019-05-16T00:36:45.803Z,52.21
2019-05-16T00:39:18.745Z,52.10
2019-05-16T00:41:50.667Z,51.78
2019-05-16T00:44:23.141Z,51.86
2019-05-16T00:46:54.848Z,52.39
2019-05-16T00:49:28.095Z,52.23
2019-05-16T00:51:59.746Z,52.06
2019-05-16T00:54:31.382Z,52.30
2019-05-16T00:57:05.314Z,51.91
2019-05-16T00:59:38.436Z,52.17
2019-05-16T01:02:10.218Z,52.28
2019-05-16T01:04:41.853Z,52.66
2019-05-16T01:07:13.848Z,52.51
2019-05-16T01:09:45.612Z,52.55
2019-05-16T01:12:17.864Z,52.67
2019-05-16T01:14:49.490Z,52.92
2019-05-16T01:17:40.014Z,53.10
2019-05-16T01:20:11.752Z,53.09
2019-05-16T01:22:43.365Z,52.97
2019-05-16T01:25:16.042Z,53.21
2019-05-16T01:27:47.742Z,53.47
2019-05-16T01:30:19.378Z,53.40
2019-05-16T01:32:51.505Z,53.57
2019-05-16T01:35:23.069Z,53.71
2019-05-16T01:37:54.913Z,53.74
2019-05-16T01:40:28.064Z,53.78
2019-05-16T01:42:59.781Z,54.29
2019-05-16T01:45:31.338Z,53.90
2019-05-16T01:48:03.144Z,53.72
2019-05-16T01:50:34.831Z,54.48
2019-05-16T01:53:08.665Z,54.18
2019-05-16T01:55:40.398Z,54.37
2019-05-16T01:58:12.282Z,54.30
2019-05-16T02:00:52.431Z,54.22
2019-05-16T02:03:18.988Z,54.51
2019-05-16T02:05:51.889Z,54.40
2019-05-16T02:08:28.503Z,54.18
2019-05-16T02:10:59.770Z,54.64
2019-05-16T02:13:31.392Z,54.76
2019-05-16T02:16:02.978Z,54.81
2019-05-16T02:18:34.821Z,55.00
2019-05-16T02:21:07.852Z,55.47
2019-05-16T02:23:39.711Z,55.01
2019-05-16T02:26:11.484Z,55.23
2019-05-16T02:28:43.937Z,55.54
2019-05-16T02:31:22.404Z,55.42
2019-05-16T02:33:53.246Z,55.45
2019-05-16T02:36:24.979Z,55.32
2019-05-16T02:38:56.568Z,55.61
2019-05-16T02:41:31.051Z,55.27
2019-05-16T02:44:01.579Z,55.37
2019-05-16T02:46:33.189Z,55.17
2019-05-16T02:49:04.923Z,55.55
2019-05-16T02:51:36.650Z,55.29
2019-05-16T02:54:11.087Z,55.20
2019-05-16T02:56:42.029Z,55.87
2019-05-16T02:59:13.743Z,55.42
2019-05-16T03:01:46.589Z,55.40
2019-05-16T03:04:21.120Z,55.61
2019-05-16T03:06:53.483Z,55.43
2019-05-16T03:09:30.429Z,55.24
2019-05-16T03:12:03.962Z,54.98
2019-05-16T03:14:36.121Z,55.04
2019-05-16T03:17:07.912Z,55.08
2019-05-16T03:19:41.812Z,54.86
2019-05-16T03:22:21.583Z,55.03
2019-05-16T03:24:52.031Z,54.94
2019-05-16T03:27:23.625Z,55.20
2019-05-16T03:29:55.183Z,55.35
2019-05-16T03:32:26.837Z,54.57
2019-05-16T03:35:04.119Z,54.75
2019-05-16T03:37:48.377Z,54.55
2019-05-16T03:40:05.453Z,54.37
2019-05-16T03:42:37.287Z,54.17
2019-05-16T03:45:10.817Z,53.98
2019-05-16T03:47:45.678Z,53.87
2019-05-16T03:50:21.549Z,54.18
2019-05-16T03:52:51.303Z,53.80
2019-05-16T03:55:22.903Z,53.98
2019-05-16T03:57:54.477Z,53.51
2019-05-16T04:01:10.813Z,53.90
2019-05-16T04:03:41.576Z,53.64
2019-05-16T04:06:13.504Z,53.51
2019-05-16T04:08:45.078Z,53.65
2019-05-16T04:11:19.550Z,53.06
2019-05-16T04:13:50.884Z,52.83
2019-05-16T04:16:24.152Z,52.42
2019-05-16T04:18:57.096Z,52.41
2019-05-16T04:21:32.269Z,51.71
2019-05-16T04:24:02.728Z,51.88
2019-05-16T04:26:36.010Z,51.53
2019-05-16T04:29:11.471Z,51.28
2019-05-16T04:31:41.878Z,51.16
2019-05-16T04:34:13.650Z,51.41
2019-05-16T04:36:45.516Z,51.51
2019-05-16T04:39:20.625Z,51.18
2019-05-16T04:41:51.094Z,51.12
2019-05-16T04:44:22.747Z,51.14
2019-05-16T04:46:54.301Z,51.17
2019-05-16T04:49:27.784Z,51.07
2019-05-16T04:52:00.639Z,50.98
2019-05-16T04:54:32.465Z,51.57
2019-05-16T04:57:04.293Z,51.16
2019-05-16T04:59:36.066Z,51.43
2019-05-16T05:02:08.433Z,51.78
2019-05-16T05:04:41.527Z,51.75
2019-05-16T05:07:14.168Z,51.64
2019-05-16T05:09:45.737Z,51.99
2019-05-16T05:12:17.331Z,51.66
2019-05-16T05:14:51.043Z,51.44
2019-05-16T05:17:24.325Z,51.25
2019-05-16T05:19:55.938Z,51.26
2019-05-16T05:22:27.740Z,51.33
2019-05-16T05:25:00.122Z,50.94
2019-05-16T05:27:34.037Z,51.19
2019-05-16T05:30:06.180Z,50.99
2019-05-16T05:32:38.004Z,50.38
2019-05-16T05:35:10.849Z,50.18
2019-05-16T05:37:42.659Z,50.58
2019-05-16T05:40:14.977Z,49.64
2019-05-16T05:42:46.612Z,49.32
2019-05-16T05:45:20.104Z,49.26
2019-05-16T05:47:51.562Z,48.45
2019-05-16T05:50:24.102Z,48.31
2019-05-16T05:52:55.640Z,48.35
2019-05-16T05:55:27.414Z,47.50
2019-05-16T05:58:01.012Z,47.19
2019-05-16T06:00:32.335Z,46.70
2019-05-16T06:03:03.946Z,46.77
2019-05-16T06:05:35.421Z,47.47
2019-05-16T06:08:07.350Z,48.63
2019-05-16T06:10:40.556Z,49.78
2019-05-16T06:13:13.687Z,48.03
2019-05-16T06:15:45.348Z,48.26
2019-05-16T06:18:16.928Z,47.88
2019-05-16T06:20:50.872Z,47.56
2019-05-16T06:23:21.734Z,47.83
2019-05-16T06:25:53.286Z,46.75
2019-05-16T06:28:24.847Z,48.28
2019-05-16T06:30:57.478Z,47.72
2019-05-16T06:33:30.493Z,47.41
2019-05-16T06:36:02.466Z,46.10
2019-05-16T06:38:34.039Z,46.79
2019-05-16T06:41:05.569Z,46.09
2019-05-16T06:43:37.337Z,45.78
2019-05-16T06:46:11.048Z,48.23
2019-05-16T06:48:44.722Z,47.91
2019-05-16T06:51:16.286Z,46.03
2019-05-16T06:53:49.819Z,45.46
2019-05-16T06:56:21.176Z,44.62
2019-05-16T06:58:52.730Z,44.19
2019-05-16T07:01:24.261Z,43.96
2019-05-16T07:03:55.760Z,44.39
2019-05-16T07:06:50.409Z,45.27
2019-05-16T07:09:01.208Z,42.96
2019-05-16T07:11:34.112Z,42.40
2019-05-16T07:14:05.731Z,42.34
2019-05-16T07:16:37.225Z,41.46
2019-05-16T07:19:10.445Z,40.64
2019-05-16T07:21:42.546Z,40.10
2019-05-16T07:24:16.992Z,41.55
2019-05-16T07:26:50.019Z,40.57
2019-05-16T07:29:21.083Z,40.68
2019-05-16T07:31:53.085Z,40.92
2019-05-16T07:34:24.551Z,41.34
2019-05-16T07:36:56.706Z,41.96
2019-05-16T07:39:30.731Z,42.73
2019-05-16T07:42:01.808Z,43.65
2019-05-16T07:44:33.327Z,42.87
2019-05-16T07:47:06.479Z,43.93
2019-05-16T07:49:37.999Z,43.47
2019-05-16T07:52:10.196Z,43.15
2019-05-16T07:54:41.961Z,43.31
2019-05-16T07:57:19.626Z,43.01
2019-05-16T07:59:47.167Z,42.98
2019-05-16T08:02:20.829Z,42.96
2019-05-16T08:04:52.067Z,42.25
2019-05-16T08:07:23.621Z,43.80
2019-05-16T08:09:55.169Z,46.45
2019-05-16T08:12:27.278Z,43.48
2019-05-16T08:15:00.715Z,42.55
2019-05-16T08:17:32.319Z,41.70
2019-05-16T08:20:03.884Z,40.84
2019-05-16T08:22:35.326Z,41.92
2019-05-16T08:25:07.550Z,41.84
2019-05-16T08:27:41.437Z,40.50
2019-05-16T08:30:13.685Z,40.75
2019-05-16T08:32:45.470Z,40.96
2019-05-16T08:35:21.127Z,39.01
2019-05-16T08:37:51.761Z,42.26
2019-05-16T08:40:23.678Z,42.58
2019-05-16T08:42:55.583Z,43.12
2019-05-16T08:45:27.338Z,42.11
2019-05-16T08:48:00.248Z,38.83
2019-05-16T08:50:34.961Z,41.11
2019-05-16T08:53:05.541Z,39.65
2019-05-16T08:55:37.114Z,40.64
2019-05-16T08:58:13.478Z,40.67
2019-05-16T09:00:43.046Z,40.69
2019-05-16T09:03:14.543Z,41.71
2019-05-16T09:05:46.064Z,37.02
2019-05-16T09:08:18.124Z,35.92
2019-05-16T09:11:01.700Z,35.63
2019-05-16T09:13:27.623Z,36.45
2019-05-16T09:15:58.093Z,37.29
2019-05-16T09:18:40.776Z,36.32
2019-05-16T09:21:07.182Z,36.81
2019-05-16T09:23:38.570Z,36.54
2019-05-16T09:26:10.300Z,39.28
2019-05-16T09:28:43.926Z,36.59
2019-05-16T09:31:17.871Z,37.91
2019-05-16T09:33:49.042Z,36.62
2019-05-16T09:36:20.640Z,35.11
2019-05-16T09:38:52.225Z,35.70
2019-05-16T09:41:23.617Z,35.07
2019-05-16T09:43:58.639Z,34.53
2019-05-16T09:46:28.529Z,35.93
2019-05-16T09:49:15.688Z,36.49
2019-05-16T09:51:33.259Z,36.64
2019-05-16T09:54:07.210Z,36.12
2019-05-16T09:56:38.374Z,37.49
2019-05-16T09:59:09.916Z,38.32
2019-05-16T10:01:41.420Z,38.56
2019-05-16T10:04:12.984Z,39.87
2019-05-16T10:06:44.787Z,38.13
2019-05-16T10:09:17.773Z,38.13
2019-05-16T10:11:58.954Z,37.95
2019-05-16T10:14:22.490Z,37.18
2019-05-16T10:16:54.009Z,37.85
2019-05-16T10:19:27.580Z,37.31
2019-05-16T10:22:00.338Z,38.21
2019-05-16T10:24:32.008Z,38.05
2019-05-16T10:27:06.445Z,37.67
2019-05-16T10:29:38.820Z,37.64
2019-05-16T10:32:10.287Z,38.14
2019-05-16T10:34:41.866Z,37.22
2019-05-16T10:37:13.377Z,37.39
2019-05-16T10:39:46.925Z,37.29
2019-05-16T10:42:28.147Z,37.77
2019-05-16T10:44:51.359Z,37.37
2019-05-16T10:47:22.880Z,37.03
2019-05-16T10:49:56.454Z,37.58
2019-05-16T10:52:27.530Z,37.13
2019-05-16T10:55:02.482Z,35.70
2019-05-16T10:57:34.203Z,38.05
2019-05-16T11:00:18.081Z,36.51
2019-05-16T11:02:40.845Z,37.14
2019-05-16T11:05:25.005Z,36.83
2019-05-16T11:07:48.536Z,36.42
2019-05-16T11:10:19.789Z,36.96
2019-05-16T11:12:55.350Z,37.20
2019-05-16T11:15:27.579Z,36.46
2019-05-16T11:18:00.011Z,37.11
2019-05-16T11:20:31.136Z,35.98
2019-05-16T11:23:02.815Z,35.87
2019-05-16T11:25:36.778Z,34.35
2019-05-16T11:28:08.493Z,34.87
2019-05-16T11:30:41.295Z,34.72
2019-05-16T11:33:12.796Z,34.10
2019-05-16T11:35:47.326Z,33.78
2019-05-16T11:38:18.040Z,34.43
2019-05-16T11:40:50.224Z,37.29
2019-05-16T11:43:22.068Z,36.18
2019-05-16T11:45:54.008Z,36.25
2019-05-16T11:48:29.028Z,36.15
2019-05-16T11:50:58.835Z,36.05
2019-05-16T11:53:30.587Z,36.15
2019-05-16T11:56:02.358Z,35.96
2019-05-16T11:58:34.070Z,36.40
2019-05-16T12:01:07.517Z,37.06
2019-05-16T12:03:39.028Z,36.52
2019-05-16T12:06:11.330Z,36.67
2019-05-16T12:08:42.920Z,38.56
2019-05-16T12:11:14.702Z,37.92
2019-05-16T12:13:47.642Z,37.67
2019-05-16T12:16:19.792Z,38.41
2019-05-16T12:18:51.446Z,37.97
2019-05-16T12:21:23.036Z,38.68
2019-05-16T12:23:54.547Z,40.10
2019-05-16T12:26:28.218Z,41.40
2019-05-16T12:28:59.294Z,40.82
2019-05-16T12:31:32.566Z,38.20
2019-05-16T12:34:04.216Z,38.85
2019-05-16T12:36:37.873Z,37.80
2019-05-16T12:39:10.325Z,37.95
2019-05-16T12:41:41.910Z,38.15
2019-05-16T12:44:13.482Z,38.18
2019-05-16T12:46:47.545Z,37.77
2019-05-16T12:49:19.333Z,37.58
2019-05-16T12:51:53.627Z,36.15
2019-05-16T12:54:27.501Z,36.42
2019-05-16T12:56:58.439Z,37.16
2019-05-16T12:59:30.235Z,37.01
2019-05-16T13:02:01.803Z,38.91
2019-05-16T13:04:33.748Z,38.94
2019-05-16T13:07:09.211Z,39.06
2019-05-16T13:09:39.712Z,37.47
2019-05-16T13:12:11.301Z,36.81
2019-05-16T13:14:43.093Z,36.12
2019-05-16T13:17:16.674Z,35.34
2019-05-16T13:19:48.446Z,35.30
2019-05-16T13:22:20.164Z,35.76
2019-05-16T13:24:51.950Z,35.30
2019-05-16T13:27:23.691Z,34.97
2019-05-16T13:29:58.015Z,35.18
2019-05-16T13:32:28.634Z,35.50
2019-05-16T13:35:00.242Z,35.74
2019-05-16T13:37:31.761Z,34.84
2019-05-16T13:40:03.412Z,35.69
2019-05-16T13:42:36.854Z,34.85
2019-05-16T13:45:09.357Z,34.71
2019-05-16T13:47:40.937Z,35.28
2019-05-16T13:50:13.313Z,35.58
2019-05-16T13:52:47.926Z,35.99
2019-05-16T13:55:19.266Z,35.40
2019-05-16T13:57:51.225Z,35.51
2019-05-16T14:00:24.015Z,36.15
2019-05-16T14:02:58.345Z,38.52
2019-05-16T14:05:31.570Z,38.41
2019-05-16T14:08:03.126Z,36.14
2019-05-16T14:10:37.385Z,35.61
2019-05-16T14:13:08.285Z,35.34
2019-05-16T14:15:39.831Z,36.05
2019-05-16T14:18:17.669Z,35.01
2019-05-16T14:20:49.764Z,35.80
2019-05-16T14:23:24.243Z,34.82
2019-05-16T14:25:57.829Z,33.83
2019-05-16T14:28:29.153Z,34.01
2019-05-16T14:31:01.306Z,33.58
2019-05-16T14:33:32.881Z,33.43
2019-05-16T14:36:07.396Z,33.53
2019-05-16T14:38:38.792Z,33.04
2019-05-16T14:41:10.447Z,33.08
2019-05-16T14:43:42.214Z,33.54
2019-05-16T14:46:14.052Z,33.77
2019-05-16T14:48:45.751Z,34.24
2019-05-16T14:51:18.163Z,33.42
2019-05-16T14:53:49.919Z,33.91
2019-05-16T14:56:21.715Z,34.13
2019-05-16T14:58:57.706Z,34.10
2019-05-16T15:01:29.019Z,33.35
2019-05-16T15:04:00.916Z,32.66
2019-05-16T15:06:32.588Z,33.86
2019-05-16T15:09:07.358Z,34.11
2019-05-16T15:11:38.793Z,34.00
2019-05-16T15:14:10.425Z,33.21
2019-05-16T15:16:42.117Z,32.72
2019-05-16T15:19:13.706Z,33.24
2019-05-16T15:21:47.669Z,32.46
2019-05-16T15:24:19.670Z,32.48
2019-05-16T15:26:51.230Z,32.68
2019-05-16T15:29:22.925Z,32.94
2019-05-16T15:31:57.224Z,32.16
2019-05-16T15:34:30.284Z,33.66
2019-05-16T15:37:01.407Z,32.78
2019-05-16T15:39:37.147Z,33.17
2019-05-16T15:42:08.172Z,33.28
2019-05-16T15:44:40.224Z,33.54
2019-05-16T15:47:11.851Z,33.93
2019-05-16T15:49:47.734Z,33.98
2019-05-16T15:52:20.207Z,33.95
2019-05-16T15:54:52.454Z,34.30
2019-05-16T15:57:26.792Z,34.35
2019-05-16T15:59:57.804Z,35.31
2019-05-16T16:02:29.582Z,35.20
2019-05-16T16:05:01.401Z,35.75
2019-05-16T16:07:33.500Z,35.72
2019-05-16T16:10:07.032Z,35.02
2019-05-16T16:12:41.644Z,35.25
2019-05-16T16:15:14.404Z,35.93
2019-05-16T16:17:47.433Z,35.78
2019-05-16T16:20:19.029Z,35.98
2019-05-16T16:22:53.635Z,36.00
2019-05-16T16:25:26.824Z,35.42
2019-05-16T16:27:58.492Z,35.47
2019-05-16T16:30:30.153Z,34.99
2019-05-16T16:33:02.026Z,35.35
2019-05-16T16:35:37.570Z,35.67
2019-05-16T16:38:08.003Z,35.54
2019-05-16T16:40:39.686Z,35.58
2019-05-16T16:43:11.487Z,36.13
2019-05-16T16:45:43.283Z,35.98
2019-05-16T16:48:17.189Z,36.31
2019-05-16T16:50:48.618Z,36.46
2019-05-16T16:53:20.536Z,36.61
2019-05-16T16:55:56.649Z,36.62
2019-05-16T16:58:27.284Z,36.83
2019-05-16T17:01:01.425Z,37.46
2019-05-16T17:03:32.352Z,38.33
2019-05-16T17:06:03.972Z,38.43
2019-05-16T17:08:37.485Z,38.63
2019-05-16T17:11:09.309Z,38.77
2019-05-16T17:13:40.987Z,39.19
2019-05-16T17:16:25.219Z,39.97
2019-05-16T17:18:47.581Z,40.38
2019-05-16T17:21:21.719Z,40.46
2019-05-16T17:23:53.666Z,40.99
2019-05-16T17:26:27.426Z,41.39
2019-05-16T17:28:58.980Z,41.60
2019-05-16T17:31:30.723Z,41.26
2019-05-16T17:34:02.308Z,41.25
2019-05-16T17:36:33.868Z,41.23
2019-05-16T17:39:06.599Z,41.78
2019-05-16T17:41:38.472Z,41.81
2019-05-16T17:44:10.473Z,42.18
2019-05-16T17:46:42.158Z,41.57
2019-05-16T17:49:13.888Z,42.36
2019-05-16T17:51:47.234Z,42.36
2019-05-16T17:54:19.044Z,42.71
2019-05-16T17:56:51.559Z,42.29
2019-05-16T17:59:23.157Z,42.45
2019-05-16T18:01:56.872Z,42.66
2019-05-16T18:04:28.118Z,43.05
2019-05-16T18:06:59.840Z,43.42
2019-05-16T18:09:31.570Z,43.62
2019-05-16T18:12:03.295Z,44.64
2019-05-16T18:14:37.115Z,44.83
2019-05-16T18:17:08.106Z,45.45
2019-05-16T18:19:39.642Z,46.49
2019-05-16T18:22:11.783Z,46.64
2019-05-16T18:24:43.413Z,46.66
2019-05-16T18:27:17.142Z,46.82
2019-05-16T18:29:48.334Z,46.80
2019-05-16T18:32:20.223Z,46.92
2019-05-16T18:34:52.008Z,46.72
2019-05-16T18:37:23.978Z,46.83
2019-05-16T18:39:56.448Z,47.31
2019-05-16T18:42:29.344Z,48.11
2019-05-16T18:45:01.090Z,48.28
2019-05-16T18:47:34.365Z,48.81
2019-05-16T18:50:06.864Z,49.30
2019-05-16T18:52:39.562Z,49.60
2019-05-16T18:55:11.211Z,50.53
2019-05-16T18:57:42.943Z,50.70
2019-05-16T19:00:17.914Z,51.39
2019-05-16T19:02:49.364Z,51.51
2019-05-16T19:05:21.205Z,52.04
2019-05-16T19:07:53.001Z,51.89
2019-05-16T19:10:26.985Z,52.06
2019-05-16T19:12:59.760Z,52.10
2019-05-16T19:15:31.858Z,52.31
2019-05-16T19:18:03.448Z,52.49
2019-05-16T19:20:37.173Z,52.67
2019-05-16T19:23:08.499Z,53.38
2019-05-16T19:25:42.282Z,53.74
2019-05-16T19:28:13.876Z,53.96
2019-05-16T19:30:47.149Z,54.03
2019-05-16T19:33:18.905Z,53.91
2019-05-16T19:35:50.489Z,53.62
2019-05-16T19:38:28.909Z,53.94
2019-05-16T19:40:57.683Z,54.29
2019-05-16T19:43:29.870Z,55.14
2019-05-16T19:46:02.038Z,54.81
2019-05-16T19:48:33.689Z,54.83
2019-05-16T19:51:07.489Z,54.98
2019-05-16T19:53:38.993Z,55.07
2019-05-16T19:56:11.402Z,55.22
2019-05-16T19:58:46.795Z,55.24
2019-05-16T20:01:18.588Z,55.58
2019-05-16T20:03:50.773Z,56.30
2019-05-16T20:06:22.838Z,56.69
2019-05-16T20:08:54.699Z,56.11
2019-05-16T20:11:28.615Z,55.58
2019-05-16T20:14:00.220Z,55.94
2019-05-16T20:16:33.258Z,55.66
2019-05-16T20:19:06.523Z,55.15
2019-05-16T20:21:40.468Z,55.86
2019-05-16T20:24:12.733Z,55.43
2019-05-16T20:26:46.427Z,55.55
2019-05-16T20:29:18.230Z,55.45
2019-05-16T20:31:50.109Z,55.33
2019-05-16T20:34:24.027Z,56.10
2019-05-16T20:36:57.240Z,56.31
2019-05-16T20:39:29.192Z,55.50
2019-05-16T20:42:00.962Z,55.96
2019-05-16T20:44:32.668Z,55.94
2019-05-16T20:47:07.226Z,55.20
2019-05-16T20:49:38.842Z,55.72
2019-05-16T20:52:10.920Z,55.84
2019-05-16T20:54:42.561Z,55.86
2019-05-16T20:57:14.383Z,55.25
2019-05-16T20:59:46.361Z,55.38
2019-05-16T21:02:22.528Z,55.30
2019-05-16T21:04:54.065Z,55.77
2019-05-16T21:07:26.442Z,55.46
2019-05-16T21:09:59.015Z,55.89
2019-05-16T21:12:31.299Z,55.58
2019-05-16T21:15:02.884Z,56.11
2019-05-16T21:17:35.843Z,56.15
2019-05-16T21:20:09.018Z,56.57
2019-05-16T21:22:41.572Z,56.90
2019-05-16T21:25:13.639Z,57.21
2019-05-16T21:27:46.477Z,57.48
2019-05-16T21:30:19.287Z,57.19
2019-05-16T21:32:51.475Z,57.05
2019-05-16T21:35:23.212Z,57.70
2019-05-16T21:37:55.888Z,58.36
2019-05-16T21:40:27.660Z,58.46
2019-05-16T21:42:59.256Z,58.38
2019-05-16T21:45:30.846Z,58.04
2019-05-16T21:48:02.465Z,57.80
2019-05-16T21:50:36.451Z,57.75
2019-05-16T21:53:07.568Z,57.38
2019-05-16T21:55:39.132Z,57.35
2019-05-16T21:58:10.751Z,57.39
2019-05-16T22:00:47.423Z,57.72
2019-05-16T22:03:19.359Z,57.18
2019-05-16T22:05:51.082Z,57.72
2019-05-16T22:08:23.073Z,57.62
2019-05-16T22:10:57.269Z,58.36
2019-05-16T22:13:29.398Z,58.44
2019-05-16T22:16:01.050Z,58.86
2019-05-16T22:18:33.008Z,58.53
2019-05-16T22:21:07.590Z,58.01
2019-05-16T22:23:39.113Z,57.92
2019-05-16T22:26:10.655Z,57.88
2019-05-16T22:28:42.411Z,57.97
2019-05-16T22:31:16.077Z,58.01
2019-05-16T22:33:47.410Z,58.15
2019-05-16T22:36:19.217Z,58.31
2019-05-16T22:38:51.094Z,57.87
2019-05-16T22:41:23.454Z,57.73
2019-05-16T22:43:56.111Z,57.34
2019-05-16T22:46:28.325Z,57.87
2019-05-16T22:49:00.367Z,57.57
2019-05-16T22:51:32.279Z,57.51
2019-05-16T22:54:04.413Z,57.30
2019-05-16T22:56:37.530Z,57.51
2019-05-16T22:59:09.651Z,57.30
2019-05-16T23:01:41.921Z,57.46
2019-05-16T23:04:13.534Z,57.89
2019-05-16T23:06:48.453Z,57.86
2019-05-16T23:09:22.090Z,57.78
2019-05-16T23:11:56.322Z,57.87
2019-05-16T23:14:27.956Z,59.02
2019-05-16T23:16:59.720Z,59.49
2019-05-16T23:19:31.333Z,59.50
2019-05-16T23:22:03.233Z,59.35
2019-05-16T23:24:36.992Z,58.87
2019-05-16T23:27:08.659Z,59.05
2019-05-16T23:29:42.300Z,60.82
2019-05-16T23:32:13.906Z,60.92
2019-05-16T23:34:46.613Z,61.12
2019-05-16T23:37:20.910Z,61.94
2019-05-16T23:39:52.942Z,61.67
2019-05-16T23:42:26.329Z,62.43
2019-05-16T23:44:58.752Z,62.24
2019-05-16T23:47:30.567Z,62.34
2019-05-16T23:50:02.210Z,62.08
2019-05-16T23:52:36.593Z,62.74
2019-05-16T23:55:08.464Z,63.71
2019-05-16T23:57:40.183Z,64.58
